Time;durP1;ratioP1;P1;durP2;ratioP2;P2;SDS_P1;SDS_P2;PMS_P1;PMS_P2;Temp;Humidity;BMP_temperature;BMP_pressure;BME280_temperature;BME280_humidity;BME280_pressure;Samples;Min_cycle;Max_cycle;Signal;HPM_P1;HPM_P2
2023/08/12 00:01:48;;;;;;;5.97;2.85;;;;;;;;;;5077947;28;20043;-73
2023/08/12 00:04:14;;;;;;;4.57;3.00;;;;;;;;;;5077951;28;20029;-71
2023/08/12 00:06:41;;;;;;;3.92;2.72;;;;;;;;;;5077640;28;20025;-73
2023/08/12 00:09:07;;;;;;;5.55;2.88;;;;;;;;;;5077871;28;20483;-74
2023/08/12 00:11:32;;;;;;;6.25;3.10;;;;;;;;;;5078445;28;20020;-71
2023/08/12 00:13:58;;;;;;;6.10;2.80;;;;;;;;;;5060301;28;20027;-73
2023/08/12 00:16:23;;;;;;;4.97;3.20;;;;;;;;;;5078896;28;20059;-74
2023/08/12 00:18:48;;;;;;;6.93;2.97;;;;;;;;;;5061903;28;20074;-73
2023/08/12 00:21:14;;;;;;;5.75;2.58;;;;;;;;;;5078941;28;20028;-72
2023/08/12 00:23:41;;;;;;;9.38;3.05;;;;;;;;;;5061007;28;20044;-73
2023/08/12 00:26:10;;;;;;;5.60;3.00;;;;;;;;;;5059287;28;20111;-74
2023/08/12 00:28:36;;;;;;;5.45;3.00;;;;;;;;;;5058886;28;20077;-74
2023/08/12 00:31:04;;;;;;;5.65;2.90;;;;;;;;;;5076718;28;20180;-73
2023/08/12 00:33:30;;;;;;;8.30;2.92;;;;;;;;;;5078486;28;20403;-73
2023/08/12 00:35:56;;;;;;;5.18;2.95;;;;;;;;;;5077250;28;20032;-74
2023/08/12 00:38:21;;;;;;;6.57;2.83;;;;;;;;;;5077391;28;20487;-72
2023/08/12 00:40:47;;;;;;;7.63;2.90;;;;;;;;;;5076693;28;20036;-71
2023/08/12 00:43:12;;;;;;;4.28;2.83;;;;;;;;;;5076707;28;20073;-73
2023/08/12 00:45:37;;;;;;;6.43;3.05;;;;;;;;;;5077815;28;20487;-71
2023/08/12 00:48:04;;;;;;;4.53;2.67;;;;;;;;;;5076926;28;20052;-74
2023/08/12 00:50:30;;;;;;;5.05;3.00;;;;;;;;;;5058815;28;20027;-74
2023/08/12 00:52:55;;;;;;;4.78;2.70;;;;;;;;;;5077142;28;20028;-74
2023/08/12 00:55:21;;;;;;;4.85;2.80;;;;;;;;;;5076620;28;20024;-74
2023/08/12 00:57:46;;;;;;;3.92;2.67;;;;;;;;;;5059123;28;20417;-74
2023/08/12 01:00:12;;;;;;;4.30;2.80;;;;;;;;;;5076960;28;20052;-71
2023/08/12 01:02:38;;;;;;;5.15;3.08;;;;;;;;;;5076833;28;20025;-74
2023/08/12 01:05:04;;;;;;;6.05;2.80;;;;;;;;;;5076721;28;20046;-74
2023/08/12 01:07:29;;;;;;;7.53;3.00;;;;;;;;;;5076341;28;20040;-74
2023/08/12 01:09:54;;;;;;;8.65;3.30;;;;;;;;;;5076849;28;20472;-74
2023/08/12 01:12:26;;;;;;;4.97;2.90;;;;;;;;;;5058612;28;20024;-74
2023/08/12 01:15:07;;;;;;;4.57;2.95;;;;;;;;;;5076482;28;20118;-74
2023/08/12 01:17:34;;;;;;;8.95;3.22;;;;;;;;;;5076583;28;20028;-74
2023/08/12 01:19:59;;;;;;;7.65;3.17;;;;;;;;;;5076411;28;20032;-74
2023/08/12 01:22:28;;;;;;;4.47;2.95;;;;;;;;;;5076631;28;20033;-74
2023/08/12 01:24:53;;;;;;;4.75;2.75;;;;;;;;;;5076255;28;20025;-73
2023/08/12 01:27:19;;;;;;;6.97;2.90;;;;;;;;;;5058052;28;20470;-74
2023/08/12 01:29:49;;;;;;;4.72;2.95;;;;;;;;;;5058615;28;20813;-74
2023/08/12 01:32:52;;;;;;;8.75;3.00;;;;;;;;;;5058127;28;20495;-74
2023/08/12 01:35:25;;;;;;;4.88;2.97;;;;;;;;;;5041405;28;20467;-74
2023/08/12 01:37:52;;;;;;;6.65;2.95;;;;;;;;;;5075642;28;20069;-72
2023/08/12 01:40:19;;;;;;;4.38;2.88;;;;;;;;;;5058239;28;20025;-74
2023/08/12 01:42:45;;;;;;;6.88;3.05;;;;;;;;;;5076106;28;20487;-74
2023/08/12 01:45:11;;;;;;;6.32;2.95;;;;;;;;;;5075619;28;20027;-74
2023/08/12 01:47:36;;;;;;;5.15;3.05;;;;;;;;;;5056743;28;20048;-74
2023/08/12 01:50:01;;;;;;;5.65;3.03;;;;;;;;;;5056341;28;20437;-74
2023/08/12 01:52:26;;;;;;;6.70;2.95;;;;;;;;;;5057875;28;20491;-74
2023/08/12 01:54:52;;;;;;;6.25;2.90;;;;;;;;;;5076418;28;20032;-74
2023/08/12 01:57:17;;;;;;;8.43;3.15;;;;;;;;;;5058238;28;20519;-74
2023/08/12 01:59:45;;;;;;;6.57;3.10;;;;;;;;;;5075565;28;20042;-74
2023/08/12 02:02:11;;;;;;;5.65;3.00;;;;;;;;;;5076028;28;20117;-74
2023/08/12 02:04:37;;;;;;;5.47;2.88;;;;;;;;;;5076251;28;20487;-74
2023/08/12 02:07:03;;;;;;;5.75;3.30;;;;;;;;;;5058461;28;20027;-74
2023/08/12 02:09:28;;;;;;;7.32;2.97;;;;;;;;;;5076151;28;20099;-73
2023/08/12 02:11:54;;;;;;;6.18;3.13;;;;;;;;;;5076003;28;20047;-74
2023/08/12 02:14:19;;;;;;;4.50;3.20;;;;;;;;;;5058024;28;20028;-74
2023/08/12 02:16:44;;;;;;;5.55;3.00;;;;;;;;;;5075658;28;20116;-73
2023/08/12 02:19:10;;;;;;;6.18;3.45;;;;;;;;;;5074542;28;20028;-74
2023/08/12 02:21:35;;;;;;;5.43;2.92;;;;;;;;;;5074801;28;20094;-74
2023/08/12 02:24:00;;;;;;;5.80;2.97;;;;;;;;;;5075664;28;20047;-74
2023/08/12 02:26:25;;;;;;;5.05;2.88;;;;;;;;;;5073939;28;20629;-74
2023/08/12 02:28:51;;;;;;;5.82;2.95;;;;;;;;;;5075917;28;20035;-74
2023/08/12 02:31:16;;;;;;;4.85;3.00;;;;;;;;;;5073789;28;20027;-74
2023/08/12 02:33:42;;;;;;;4.68;3.03;;;;;;;;;;5073907;28;20039;-74
2023/08/12 02:36:07;;;;;;;3.72;2.70;;;;;;;;;;5074922;28;20418;-74
2023/08/12 02:38:32;;;;;;;5.72;3.28;;;;;;;;;;5074969;28;20034;-74
2023/08/12 02:40:57;;;;;;;4.97;3.00;;;;;;;;;;5057394;28;20028;-74
2023/08/12 02:43:23;;;;;;;5.97;3.03;;;;;;;;;;5075079;28;20028;-71
2023/08/12 02:45:48;;;;;;;11.18;3.50;;;;;;;;;;5057463;28;20024;-74
2023/08/12 02:48:13;;;;;;;4.68;3.30;;;;;;;;;;5057658;28;20027;-72
2023/08/12 02:50:39;;;;;;;5.97;3.00;;;;;;;;;;5057955;28;20383;-73
2023/08/12 02:53:05;;;;;;;6.30;3.22;;;;;;;;;;5075183;28;20028;-74
2023/08/12 02:55:31;;;;;;;5.75;2.92;;;;;;;;;;5075177;28;20024;-71
2023/08/12 02:57:57;;;;;;;4.40;2.85;;;;;;;;;;5075383;28;20027;-74
2023/08/12 03:00:23;;;;;;;4.47;2.95;;;;;;;;;;5075175;28;20399;-73
2023/08/12 03:02:48;;;;;;;9.77;3.20;;;;;;;;;;5057033;28;20024;-74
2023/08/12 03:05:13;;;;;;;5.38;3.13;;;;;;;;;;5074768;28;20024;-74
2023/08/12 03:07:38;;;;;;;4.75;3.13;;;;;;;;;;5074591;28;20021;-74
2023/08/12 03:10:04;;;;;;;5.13;2.80;;;;;;;;;;5056536;28;20387;-73
2023/08/12 03:12:30;;;;;;;10.90;3.17;;;;;;;;;;5074193;28;20029;-72
2023/08/12 03:14:55;;;;;;;5.05;2.97;;;;;;;;;;5073996;28;20021;-74
2023/08/12 03:17:20;;;;;;;7.90;3.15;;;;;;;;;;5074312;28;20395;-74
2023/08/12 03:19:45;;;;;;;3.67;2.83;;;;;;;;;;5074470;28;20471;-74
2023/08/12 03:22:11;;;;;;;5.68;3.03;;;;;;;;;;5074319;28;20330;-74
2023/08/12 03:24:36;;;;;;;4.40;2.80;;;;;;;;;;5074420;28;20020;-74
2023/08/12 03:27:01;;;;;;;8.60;3.23;;;;;;;;;;5074428;28;20541;-74
2023/08/12 03:29:26;;;;;;;6.35;3.20;;;;;;;;;;5074308;28;20667;-74
2023/08/12 03:31:52;;;;;;;8.75;2.90;;;;;;;;;;5073389;28;20099;-74
2023/08/12 03:34:17;;;;;;;4.15;2.95;;;;;;;;;;5073582;28;20545;-74
2023/08/12 03:36:42;;;;;;;4.03;2.90;;;;;;;;;;5073758;28;20043;-74
2023/08/12 03:39:08;;;;;;;5.13;3.03;;;;;;;;;;5056689;28;20017;-74
2023/08/12 03:41:33;;;;;;;5.60;2.95;;;;;;;;;;5056453;28;20058;-74
2023/08/12 03:43:58;;;;;;;6.38;3.28;;;;;;;;;;5056484;28;20067;-74
2023/08/12 03:46:24;;;;;;;6.00;3.15;;;;;;;;;;5074483;28;20075;-74
2023/08/12 03:48:49;;;;;;;4.60;3.03;;;;;;;;;;5075330;28;20032;-74
2023/08/12 03:51:14;;;;;;;6.50;3.17;;;;;;;;;;5057386;28;20046;-74
2023/08/12 03:53:39;;;;;;;3.95;2.95;;;;;;;;;;5057130;28;20070;-74
2023/08/12 03:56:05;;;;;;;5.45;2.92;;;;;;;;;;5056712;28;20509;-73
2023/08/12 03:58:30;;;;;;;5.85;3.20;;;;;;;;;;5075036;28;20027;-74
2023/08/12 04:00:55;;;;;;;4.28;3.20;;;;;;;;;;5056942;28;20427;-74
2023/08/12 04:03:21;;;;;;;5.78;3.30;;;;;;;;;;5075497;28;20052;-74
2023/08/12 04:05:52;;;;;;;4.53;3.08;;;;;;;;;;5075586;28;20036;-73
2023/08/12 04:08:18;;;;;;;7.35;2.90;;;;;;;;;;5075556;28;20483;-73
2023/08/12 04:10:45;;;;;;;8.60;2.92;;;;;;;;;;5075167;28;20020;-73
2023/08/12 04:13:10;;;;;;;3.75;2.97;;;;;;;;;;5056486;28;20024;-73
2023/08/12 04:15:35;;;;;;;4.60;2.87;;;;;;;;;;5074178;28;20453;-73
2023/08/12 04:18:01;;;;;;;4.70;3.40;;;;;;;;;;5074115;28;20261;-73
2023/08/12 04:20:26;;;;;;;7.80;3.00;;;;;;;;;;5074406;28;20032;-74
2023/08/12 04:22:51;;;;;;;5.10;3.05;;;;;;;;;;5074193;28;20033;-73
2023/08/12 04:25:17;;;;;;;4.93;3.00;;;;;;;;;;5074826;28;20403;-74
2023/08/12 04:27:42;;;;;;;4.30;3.10;;;;;;;;;;5077118;28;20026;-73
2023/08/12 04:30:08;;;;;;;5.15;3.00;;;;;;;;;;5076325;28;20032;-74
2023/08/12 04:32:33;;;;;;;4.70;3.00;;;;;;;;;;5076665;28;20036;-74
2023/08/12 04:34:58;;;;;;;5.05;3.10;;;;;;;;;;5076706;28;20032;-73
2023/08/12 04:37:24;;;;;;;6.68;3.50;;;;;;;;;;5043274;28;20439;-73
2023/08/12 04:39:50;;;;;;;7.65;2.90;;;;;;;;;;5077637;28;20070;-73
2023/08/12 04:42:15;;;;;;;5.63;3.00;;;;;;;;;;5077465;28;20056;-73
2023/08/12 04:44:41;;;;;;;7.25;3.00;;;;;;;;;;5060226;28;20012;-72
2023/08/12 04:47:06;;;;;;;9.85;2.95;;;;;;;;;;5059967;28;20032;-73
2023/08/12 04:49:31;;;;;;;5.82;3.05;;;;;;;;;;5077725;28;20036;-75
2023/08/12 04:51:57;;;;;;;12.88;3.28;;;;;;;;;;5078091;28;20472;-74
2023/08/12 04:54:22;;;;;;;9.52;3.03;;;;;;;;;;5077537;28;20104;-74
2023/08/12 04:56:47;;;;;;;5.90;3.08;;;;;;;;;;5077097;28;20025;-73
2023/08/12 04:59:13;;;;;;;6.40;3.15;;;;;;;;;;5059194;28;20028;-74
2023/08/12 05:01:38;;;;;;;5.43;3.30;;;;;;;;;;5076689;28;20386;-74
2023/08/12 05:04:03;;;;;;;5.47;3.17;;;;;;;;;;5076720;28;20257;-74
2023/08/12 05:06:29;;;;;;;5.45;3.08;;;;;;;;;;5076229;28;20020;-74
2023/08/12 05:08:55;;;;;;;6.82;2.92;;;;;;;;;;5058389;28;20063;-74
2023/08/12 05:11:20;;;;;;;3.80;2.80;;;;;;;;;;5076415;28;20020;-74
2023/08/12 05:13:46;;;;;;;5.10;3.22;;;;;;;;;;5076484;28;20032;-74
2023/08/12 05:16:11;;;;;;;7.35;3.00;;;;;;;;;;5059013;28;20432;-74
2023/08/12 05:18:36;;;;;;;5.20;3.17;;;;;;;;;;5076599;28;20020;-74
2023/08/12 05:21:01;;;;;;;6.82;3.88;;;;;;;;;;5076331;28;20111;-77
2023/08/12 05:23:27;;;;;;;6.43;2.95;;;;;;;;;;5075990;28;20044;-75
2023/08/12 05:25:52;;;;;;;6.05;3.45;;;;;;;;;;5075555;28;20134;-80
2023/08/12 05:28:18;;;;;;;7.88;2.90;;;;;;;;;;5078968;28;20056;-77
2023/08/12 05:30:43;;;;;;;4.50;2.85;;;;;;;;;;5060700;28;20387;-80
2023/08/12 05:33:08;;;;;;;5.05;2.95;;;;;;;;;;5075575;28;20471;-76
2023/08/12 05:35:34;;;;;;;8.65;3.42;;;;;;;;;;5076359;28;20016;-77
2023/08/12 05:38:00;;;;;;;9.75;3.05;;;;;;;;;;5074259;28;20168;-76
2023/08/12 05:40:25;;;;;;;8.52;3.20;;;;;;;;;;5075464;28;20159;-76
2023/08/12 05:42:51;;;;;;;6.88;3.03;;;;;;;;;;5073324;28;20024;-76
2023/08/12 05:45:16;;;;;;;5.43;2.70;;;;;;;;;;5056055;28;20557;-76
2023/08/12 05:47:41;;;;;;;4.20;2.80;;;;;;;;;;5073062;28;20032;-76
2023/08/12 05:50:07;;;;;;;7.63;2.60;;;;;;;;;;5073780;28;20399;-76
2023/08/12 05:52:32;;;;;;;3.85;2.60;;;;;;;;;;5073139;28;20256;-75
2023/08/12 05:54:58;;;;;;;3.67;2.60;;;;;;;;;;5073312;28;20381;-76
2023/08/12 05:57:23;;;;;;;4.00;2.43;;;;;;;;;;5056541;28;20032;-76
2023/08/12 05:59:48;;;;;;;5.80;2.73;;;;;;;;;;5074268;28;20263;-76
2023/08/12 06:02:14;;;;;;;9.20;2.58;;;;;;;;;;5074338;28;20261;-76
2023/08/12 06:04:39;;;;;;;5.05;2.50;;;;;;;;;;5074301;28;20024;-76
2023/08/12 06:07:04;;;;;;;9.27;2.92;;;;;;;;;;5074221;28;20016;-75
2023/08/12 06:09:29;;;;;;;5.07;2.47;;;;;;;;;;5056079;28;20020;-76
2023/08/12 06:11:55;;;;;;;5.47;2.50;;;;;;;;;;5056292;28;20020;-76
2023/08/12 06:14:20;;;;;;;4.13;2.63;;;;;;;;;;5074369;28;20027;-76
2023/08/12 06:16:45;;;;;;;4.40;2.40;;;;;;;;;;5074204;28;20674;-76
2023/08/12 06:19:10;;;;;;;6.82;2.60;;;;;;;;;;5056393;28;20344;-76
2023/08/12 06:21:36;;;;;;;3.83;2.60;;;;;;;;;;5073621;28;20103;-76
2023/08/12 06:24:01;;;;;;;6.90;2.67;;;;;;;;;;5073949;28;20246;-76
2023/08/12 06:26:26;;;;;;;5.45;2.42;;;;;;;;;;5073652;28;20022;-76
2023/08/12 06:28:52;;;;;;;3.67;2.45;;;;;;;;;;5074109;28;20471;-75
2023/08/12 06:31:17;;;;;;;5.43;2.63;;;;;;;;;;5073268;28;20016;-76
2023/08/12 06:33:42;;;;;;;5.25;2.47;;;;;;;;;;5073918;28;20280;-75
2023/08/12 06:36:07;;;;;;;3.13;2.40;;;;;;;;;;5073965;28;20373;-76
2023/08/12 06:38:33;;;;;;;4.87;2.57;;;;;;;;;;5074474;28;20345;-76
2023/08/12 06:40:58;;;;;;;7.27;3.40;;;;;;;;;;5073873;28;20261;-76
2023/08/12 06:43:23;;;;;;;4.50;2.58;;;;;;;;;;5073967;28;20295;-75
2023/08/12 06:45:48;;;;;;;7.47;2.80;;;;;;;;;;5073522;28;20021;-71
2023/08/12 06:48:14;;;;;;;7.40;2.72;;;;;;;;;;5071589;28;20257;-75
2023/08/12 06:50:39;;;;;;;3.42;2.28;;;;;;;;;;5071610;28;20023;-75
2023/08/12 06:53:04;;;;;;;3.10;2.35;;;;;;;;;;5073405;28;20063;-75
2023/08/12 06:55:30;;;;;;;5.60;2.50;;;;;;;;;;5055289;28;20020;-76
2023/08/12 06:57:55;;;;;;;3.15;2.40;;;;;;;;;;5073122;28;20039;-75
2023/08/12 07:00:20;;;;;;;5.17;2.50;;;;;;;;;;5073372;28;20064;-75
2023/08/12 07:02:46;;;;;;;6.68;2.60;;;;;;;;;;5073663;28;20258;-75
2023/08/12 07:05:11;;;;;;;3.65;2.70;;;;;;;;;;5073447;28;20035;-76
2023/08/12 07:07:36;;;;;;;5.03;2.75;;;;;;;;;;5055782;28;20024;-75
2023/08/12 07:10:02;;;;;;;4.15;2.67;;;;;;;;;;5073945;28;20111;-75
2023/08/12 07:12:27;;;;;;;5.20;2.50;;;;;;;;;;5056196;28;20027;-75
2023/08/12 07:14:52;;;;;;;6.15;2.95;;;;;;;;;;5073904;28;20068;-75
2023/08/12 07:17:17;;;;;;;3.95;2.50;;;;;;;;;;5073861;28;20032;-75
2023/08/12 07:19:43;;;;;;;4.20;2.70;;;;;;;;;;5056138;28;20021;-75
2023/08/12 07:22:08;;;;;;;5.78;2.60;;;;;;;;;;5056245;28;20261;-75
2023/08/12 07:24:33;;;;;;;5.30;2.72;;;;;;;;;;5055108;28;20459;-75
2023/08/12 07:26:58;;;;;;;6.03;2.90;;;;;;;;;;5073397;28;20025;-75
2023/08/12 07:29:24;;;;;;;3.80;2.47;;;;;;;;;;5073533;28;20025;-75
2023/08/12 07:31:49;;;;;;;3.42;2.75;;;;;;;;;;5073889;28;20059;-75
2023/08/12 07:34:14;;;;;;;7.10;2.90;;;;;;;;;;5073804;28;20061;-75
2023/08/12 07:36:41;;;;;;;4.82;2.60;;;;;;;;;;5056379;28;20044;-75
2023/08/12 07:39:07;;;;;;;5.20;2.70;;;;;;;;;;5074304;28;20021;-75
2023/08/12 07:41:33;;;;;;;5.40;2.53;;;;;;;;;;5056174;28;20063;-75
2023/08/12 07:43:58;;;;;;;7.43;2.45;;;;;;;;;;5074306;28;20391;-75
2023/08/12 07:46:23;;;;;;;3.35;2.35;;;;;;;;;;5075762;28;20115;-77
2023/08/12 07:48:49;;;;;;;3.53;2.38;;;;;;;;;;5056575;28;20032;-77
2023/08/12 07:51:14;;;;;;;3.90;2.60;;;;;;;;;;5074344;28;20020;-77
2023/08/12 07:53:40;;;;;;;4.97;2.70;;;;;;;;;;5074014;28;20043;-77
2023/08/12 07:56:05;;;;;;;5.00;2.60;;;;;;;;;;5074208;28;20028;-77
2023/08/12 07:58:31;;;;;;;5.00;2.53;;;;;;;;;;5074063;28;20391;-75
2023/08/12 08:00:56;;;;;;;4.03;2.42;;;;;;;;;;5075322;28;20431;-75
2023/08/12 08:03:21;;;;;;;9.65;2.78;;;;;;;;;;5058880;28;20031;-75
2023/08/12 08:05:47;;;;;;;6.60;2.70;;;;;;;;;;5076721;28;20027;-75
2023/08/12 08:08:12;;;;;;;6.15;2.47;;;;;;;;;;5058665;28;20262;-75
2023/08/12 08:10:37;;;;;;;3.75;2.75;;;;;;;;;;5076325;28;20031;-75
2023/08/12 08:13:03;;;;;;;4.70;2.90;;;;;;;;;;5076320;28;20025;-75
2023/08/12 08:15:28;;;;;;;4.22;2.60;;;;;;;;;;5076108;28;20116;-75
2023/08/12 08:17:53;;;;;;;4.30;2.47;;;;;;;;;;5076103;28;20056;-75
2023/08/12 08:20:19;;;;;;;7.97;2.70;;;;;;;;;;5076207;28;20261;-75
2023/08/12 08:22:44;;;;;;;2.85;2.30;;;;;;;;;;5076024;28;20119;-75
2023/08/12 08:25:09;;;;;;;7.70;2.90;;;;;;;;;;5076002;28;20025;-75
2023/08/12 08:27:34;;;;;;;5.83;2.53;;;;;;;;;;5075739;28;20284;-76
2023/08/12 08:30:00;;;;;;;5.38;2.20;;;;;;;;;;5078563;28;20253;-81
2023/08/12 08:32:25;;;;;;;5.32;2.40;;;;;;;;;;5077252;28;20020;-75
2023/08/12 08:34:51;;;;;;;3.78;2.45;;;;;;;;;;5075923;28;20453;-76
2023/08/12 08:37:16;;;;;;;4.60;2.30;;;;;;;;;;5057965;28;20031;-76
2023/08/12 08:39:41;;;;;;;7.33;2.47;;;;;;;;;;5058004;28;20499;-76
2023/08/12 08:42:09;;;;;;;4.03;2.60;;;;;;;;;;5058073;28;20268;-76
2023/08/12 08:44:36;;;;;;;3.03;2.38;;;;;;;;;;5076043;28;20249;-76
2023/08/12 08:47:03;;;;;;;6.28;2.50;;;;;;;;;;5058274;28;20032;-76
2023/08/12 08:49:30;;;;;;;4.53;2.47;;;;;;;;;;5058024;28;20035;-76
2023/08/12 08:51:56;;;;;;;5.30;2.58;;;;;;;;;;5076117;28;20040;-76
2023/08/12 08:54:21;;;;;;;6.65;2.50;;;;;;;;;;5058032;28;20390;-76
2023/08/12 08:56:49;;;;;;;5.25;2.40;;;;;;;;;;5075722;28;20033;-76
2023/08/12 08:59:14;;;;;;;2.92;2.53;;;;;;;;;;5058137;28;20107;-76
2023/08/12 09:01:40;;;;;;;3.75;2.50;;;;;;;;;;5075797;28;20063;-76
2023/08/12 09:04:07;;;;;;;4.25;2.50;;;;;;;;;;5076020;28;20070;-76
2023/08/12 09:06:34;;;;;;;3.45;2.38;;;;;;;;;;5076021;28;20395;-76
2023/08/12 09:09:00;;;;;;;3.53;2.30;;;;;;;;;;5075594;28;20017;-77
2023/08/12 09:11:26;;;;;;;4.93;2.30;;;;;;;;;;5075125;28;20403;-76
2023/08/12 09:13:52;;;;;;;3.63;2.20;;;;;;;;;;5057070;28;20031;-76
2023/08/12 09:16:17;;;;;;;2.85;2.28;;;;;;;;;;5075227;28;20021;-76
2023/08/12 09:18:44;;;;;;;4.05;2.30;;;;;;;;;;5057319;28;20020;-77
2023/08/12 09:21:09;;;;;;;9.30;2.30;;;;;;;;;;5075366;28;20025;-76
2023/08/12 09:23:39;;;;;;;2.88;2.15;;;;;;;;;;5058282;28;20031;-76
2023/08/12 09:26:18;;;;;;;4.03;2.10;;;;;;;;;;5057344;28;20017;-76
2023/08/12 09:28:44;;;;;;;4.00;2.40;;;;;;;;;;5075421;28;20459;-76
2023/08/12 09:31:32;;;;;;;3.13;2.17;;;;;;;;;;5076157;28;20060;-76
2023/08/12 09:34:04;;;;;;;2.90;2.42;;;;;;;;;;5075333;28;20025;-76
2023/08/12 09:36:30;;;;;;;3.47;2.58;;;;;;;;;;5075343;28;20024;-76
2023/08/12 09:38:57;;;;;;;3.03;2.10;;;;;;;;;;5057393;28;20017;-76
2023/08/12 09:41:24;;;;;;;3.67;2.30;;;;;;;;;;5059701;28;20028;-79
2023/08/12 09:43:51;;;;;;;3.22;1.90;;;;;;;;;;5057209;28;20031;-76
2023/08/12 09:46:17;;;;;;;6.38;2.10;;;;;;;;;;5056666;28;20395;-76
2023/08/12 09:48:43;;;;;;;3.25;2.00;;;;;;;;;;5074947;28;20025;-75
2023/08/12 09:51:09;;;;;;;3.50;1.80;;;;;;;;;;5056558;28;20515;-76
2023/08/12 09:53:34;;;;;;;3.45;1.70;;;;;;;;;;5074533;28;20029;-76
2023/08/12 09:56:07;;;;;;;3.08;1.85;;;;;;;;;;5074287;28;20028;-75
2023/08/12 09:58:33;;;;;;;3.45;2.00;;;;;;;;;;5056390;28;20032;-75
2023/08/12 10:01:01;;;;;;;3.60;1.67;;;;;;;;;;5074426;28;20493;-75
2023/08/12 10:03:27;;;;;;;2.63;1.50;;;;;;;;;;5056174;28;20551;-75
2023/08/12 10:05:53;;;;;;;4.00;1.80;;;;;;;;;;5056386;28;20025;-75
2023/08/12 10:08:19;;;;;;;1.58;1.30;;;;;;;;;;5074391;28;20055;-77
2023/08/12 10:10:44;;;;;;;4.50;1.85;;;;;;;;;;5073840;28;20046;-75
2023/08/12 10:13:11;;;;;;;1.80;1.40;;;;;;;;;;5073963;28;20388;-75
2023/08/12 10:15:36;;;;;;;1.15;1.05;;;;;;;;;;5074134;28;20089;-75
2023/08/12 10:18:04;;;;;;;2.50;1.60;;;;;;;;;;5074062;28;20024;-74
2023/08/12 10:20:31;;;;;;;2.17;1.48;;;;;;;;;;5075181;28;20420;-75
2023/08/12 10:22:57;;;;;;;1.60;1.40;;;;;;;;;;5073436;28;20067;-76
2023/08/12 10:25:25;;;;;;;1.55;1.30;;;;;;;;;;5074086;28;20535;-75
2023/08/12 10:27:50;;;;;;;1.50;1.40;;;;;;;;;;5074381;28;20062;-74
2023/08/12 10:30:15;;;;;;;2.35;1.58;;;;;;;;;;5055664;28;20525;-75
2023/08/12 10:32:42;;;;;;;1.85;1.50;;;;;;;;;;5073530;28;20024;-75
2023/08/12 10:35:08;;;;;;;1.42;1.23;;;;;;;;;;5074833;28;20050;-74
2023/08/12 10:37:34;;;;;;;2.45;1.50;;;;;;;;;;5074789;28;20060;-74
2023/08/12 10:40:07;;;;;;;2.78;1.52;;;;;;;;;;5074691;28;20024;-74
2023/08/12 10:42:43;;;;;;;2.95;1.27;;;;;;;;;;5075003;28;20064;-74
2023/08/12 10:45:10;;;;;;;7.00;1.60;;;;;;;;;;5057016;28;20024;-74
2023/08/12 10:47:48;;;;;;;4.78;1.52;;;;;;;;;;5056991;28;20028;-74
2023/08/12 10:50:21;;;;;;;2.13;1.30;;;;;;;;;;5040416;28;20020;-74
2023/08/12 10:52:50;;;;;;;4.35;1.70;;;;;;;;;;5074043;28;20020;-74
2023/08/12 10:55:17;;;;;;;4.43;1.27;;;;;;;;;;5056048;28;20493;-74
2023/08/12 10:57:42;;;;;;;3.67;1.63;;;;;;;;;;5074056;28;20486;-74
2023/08/12 11:00:14;;;;;;;2.70;1.60;;;;;;;;;;5074392;28;20020;-74
2023/08/12 11:02:40;;;;;;;2.17;1.60;;;;;;;;;;5073927;28;20415;-73
2023/08/12 11:05:11;;;;;;;8.82;1.80;;;;;;;;;;5074109;28;20055;-74
2023/08/12 11:07:55;;;;;;;5.13;1.73;;;;;;;;;;5057129;28;20024;-76
2023/08/12 11:10:25;;;;;;;2.33;1.67;;;;;;;;;;5074482;28;20031;-75
2023/08/12 11:12:56;;;;;;;3.60;1.80;;;;;;;;;;5056434;28;20394;-77
2023/08/12 11:15:41;;;;;;;2.20;1.58;;;;;;;;;;5073724;28;20536;-72
2023/08/12 11:18:16;;;;;;;1.90;1.60;;;;;;;;;;5073764;28;20099;-72
2023/08/12 11:20:42;;;;;;;2.30;1.65;;;;;;;;;;5055454;28;20059;-73
2023/08/12 11:23:08;;;;;;;2.63;1.75;;;;;;;;;;5073089;28;20028;-72
2023/08/12 11:25:35;;;;;;;5.93;1.90;;;;;;;;;;5073454;28;20033;-73
2023/08/12 11:28:01;;;;;;;2.78;1.50;;;;;;;;;;5073427;28;20035;-73
2023/08/12 11:30:27;;;;;;;2.10;1.75;;;;;;;;;;5073196;28;20033;-72
2023/08/12 11:32:53;;;;;;;3.08;1.70;;;;;;;;;;5071109;28;20302;-72
2023/08/12 11:35:20;;;;;;;2.05;1.63;;;;;;;;;;5073980;28;20024;-73
2023/08/12 11:37:50;;;;;;;4.78;1.60;;;;;;;;;;5057977;28;20028;-73
2023/08/12 11:40:17;;;;;;;2.33;1.80;;;;;;;;;;5076993;28;20020;-72
2023/08/12 11:42:45;;;;;;;2.47;1.90;;;;;;;;;;5077001;28;20056;-72
2023/08/12 11:45:11;;;;;;;2.70;1.80;;;;;;;;;;5077048;28;20392;-72
2023/08/12 11:47:38;;;;;;;2.10;1.52;;;;;;;;;;5059172;28;20029;-74
2023/08/12 11:50:08;;;;;;;3.38;1.77;;;;;;;;;;5077201;28;20036;-72
2023/08/12 11:52:35;;;;;;;4.88;1.90;;;;;;;;;;5077041;28;20021;-72
2023/08/12 11:55:01;;;;;;;7.35;1.95;;;;;;;;;;5076005;28;20032;-73
2023/08/12 11:57:27;;;;;;;7.15;1.80;;;;;;;;;;5074921;28;20031;-72
2023/08/12 12:00:00;;;;;;;3.88;1.80;;;;;;;;;;5057693;28;20024;-72
2023/08/12 12:02:26;;;;;;;2.83;1.80;;;;;;;;;;5076132;28;20039;-74
2023/08/12 12:04:52;;;;;;;2.50;1.80;;;;;;;;;;5058141;28;20107;-73
2023/08/12 12:07:23;;;;;;;4.28;1.83;;;;;;;;;;5058093;28;20075;-73
2023/08/12 12:09:52;;;;;;;5.80;1.55;;;;;;;;;;5042523;28;20025;-73
2023/08/12 12:12:21;;;;;;;4.35;1.70;;;;;;;;;;5077914;28;20020;-73
2023/08/12 12:14:47;;;;;;;3.72;1.60;;;;;;;;;;5077704;28;20024;-73
2023/08/12 12:17:14;;;;;;;2.50;1.77;;;;;;;;;;5078029;28;20115;-73
2023/08/12 12:19:41;;;;;;;6.13;1.58;;;;;;;;;;5077555;28;20062;-73
2023/08/12 12:22:07;;;;;;;4.20;1.85;;;;;;;;;;5077420;28;20111;-73
2023/08/12 12:24:44;;;;;;;5.50;2.13;;;;;;;;;;5076857;28;20067;-73
2023/08/12 12:27:11;;;;;;;5.07;1.90;;;;;;;;;;5076651;28;20395;-73
2023/08/12 12:29:36;;;;;;;5.32;2.00;;;;;;;;;;5076392;28;20035;-73
2023/08/12 12:32:01;;;;;;;3.35;2.40;;;;;;;;;;5076966;28;20024;-72
2023/08/12 12:34:27;;;;;;;3.55;2.13;;;;;;;;;;5059375;28;20025;-74
2023/08/12 12:36:52;;;;;;;5.85;2.33;;;;;;;;;;5058895;28;20482;-73
2023/08/12 12:39:17;;;;;;;5.20;2.20;;;;;;;;;;5075226;28;20017;-74
2023/08/12 12:41:43;;;;;;;8.40;1.95;;;;;;;;;;5077257;28;20809;-74
2023/08/12 12:44:08;;;;;;;4.72;2.00;;;;;;;;;;5059171;28;20032;-73
2023/08/12 12:46:33;;;;;;;5.22;2.17;;;;;;;;;;5076339;28;20387;-74
2023/08/12 12:48:58;;;;;;;6.30;2.25;;;;;;;;;;5077354;28;20043;-74
2023/08/12 12:51:24;;;;;;;2.87;1.90;;;;;;;;;;5077071;28;20093;-74
2023/08/12 12:53:49;;;;;;;3.43;2.07;;;;;;;;;;5059181;28;20265;-74
2023/08/12 12:56:14;;;;;;;6.20;2.10;;;;;;;;;;5076895;28;20273;-73
2023/08/12 12:58:40;;;;;;;4.57;2.10;;;;;;;;;;5059006;28;20847;-74
2023/08/12 13:01:06;;;;;;;7.13;2.30;;;;;;;;;;5076744;28;20438;-74
2023/08/12 13:03:31;;;;;;;3.42;2.17;;;;;;;;;;5076945;28;20055;-74
2023/08/12 13:05:57;;;;;;;4.60;2.00;;;;;;;;;;5076895;28;20104;-74
2023/08/12 13:08:23;;;;;;;4.53;2.38;;;;;;;;;;5077552;28;20486;-74
2023/08/12 13:10:48;;;;;;;3.97;2.47;;;;;;;;;;5077180;28;20044;-74
2023/08/12 13:13:15;;;;;;;2.75;2.08;;;;;;;;;;5077076;28;20020;-74
2023/08/12 13:15:41;;;;;;;6.30;2.35;;;;;;;;;;5076652;28;20024;-74
2023/08/12 13:18:07;;;;;;;9.10;2.40;;;;;;;;;;5076492;28;20070;-74
2023/08/12 13:20:32;;;;;;;4.63;2.30;;;;;;;;;;5076719;28;20063;-74
2023/08/12 13:22:57;;;;;;;3.40;2.13;;;;;;;;;;5076311;28;20431;-74
2023/08/12 13:25:22;;;;;;;4.90;2.20;;;;;;;;;;5058387;28;20070;-74
2023/08/12 13:27:48;;;;;;;7.85;2.28;;;;;;;;;;5075117;28;20119;-74
2023/08/12 13:30:13;;;;;;;5.47;2.67;;;;;;;;;;5075027;28;20027;-74
2023/08/12 13:32:38;;;;;;;6.32;2.45;;;;;;;;;;5075101;28;20462;-74
2023/08/12 13:35:05;;;;;;;6.85;2.60;;;;;;;;;;5075277;28;20028;-74
2023/08/12 13:37:31;;;;;;;6.68;2.83;;;;;;;;;;5057564;28;20028;-74
2023/08/12 13:39:56;;;;;;;7.03;2.60;;;;;;;;;;5075892;28;20043;-74
2023/08/12 13:42:21;;;;;;;8.37;3.53;;;;;;;;;;5057058;28;20020;-72
2023/08/12 13:44:47;;;;;;;5.28;2.90;;;;;;;;;;5075735;28;20253;-73
2023/08/12 13:47:12;;;;;;;4.00;2.60;;;;;;;;;;5075550;28;20111;-75
2023/08/12 13:49:37;;;;;;;6.07;3.28;;;;;;;;;;5075242;28;20407;-73
2023/08/12 13:52:03;;;;;;;7.75;2.40;;;;;;;;;;5057117;28;20077;-75
2023/08/12 13:54:28;;;;;;;7.00;2.83;;;;;;;;;;5075144;28;20103;-75
2023/08/12 13:56:54;;;;;;;3.60;2.43;;;;;;;;;;5074898;28;20043;-75
2023/08/12 13:59:19;;;;;;;5.87;2.70;;;;;;;;;;5074890;28;20259;-74
2023/08/12 14:01:44;;;;;;;4.65;2.67;;;;;;;;;;5058356;28;20261;-75
2023/08/12 14:04:10;;;;;;;3.70;2.50;;;;;;;;;;5074911;28;20093;-74
2023/08/12 14:06:35;;;;;;;10.93;2.33;;;;;;;;;;5057131;28;20055;-74
2023/08/12 14:09:00;;;;;;;3.30;2.70;;;;;;;;;;5074887;28;20648;-75
2023/08/12 14:11:25;;;;;;;8.00;2.80;;;;;;;;;;5074569;28;20360;-75
2023/08/12 14:13:51;;;;;;;3.40;2.58;;;;;;;;;;5075003;28;20024;-75
2023/08/12 14:16:16;;;;;;;6.13;2.50;;;;;;;;;;5074498;28;20083;-75
2023/08/12 14:18:41;;;;;;;9.40;2.57;;;;;;;;;;5075315;28;20031;-75
2023/08/12 14:21:06;;;;;;;3.77;2.50;;;;;;;;;;5074391;28;20257;-73
2023/08/12 14:23:32;;;;;;;3.57;2.70;;;;;;;;;;5074214;28;20071;-74
2023/08/12 14:25:57;;;;;;;5.33;2.70;;;;;;;;;;5073982;28;20472;-73
2023/08/12 14:28:22;;;;;;;3.70;2.42;;;;;;;;;;5073575;28;20261;-73
2023/08/12 14:30:48;;;;;;;3.97;2.20;;;;;;;;;;5055930;28;20047;-73
2023/08/12 14:33:13;;;;;;;9.87;2.10;;;;;;;;;;5073880;28;20024;-74
2023/08/12 14:35:39;;;;;;;2.80;2.23;;;;;;;;;;5073985;28;20281;-73
2023/08/12 14:38:04;;;;;;;2.55;1.80;;;;;;;;;;5073726;28;20314;-73